Home > Products > Valid Products > TAF

000
FTUS42 KCAE 311800 AAA
TAFDNL
TAF AMD
KDNL 311800Z 3118/0118 06007KT P6SM BKN022 BKN050
     FM312200 35006KT P6SM SCT025 BKN050
     FM010000 VRB03KT P6SM SCT050 BKN150
     FM010600 VRB03KT 6SM BR SCT250
      TEMPO 0110/0114 3SM BR
     FM011500 VRB04KT P6SM SCT250=



000
FTUS42 KCAE 311800 AAA
TAFDNL
TAF AMD
KDNL 311800Z 3118/0118 06007KT P6SM BKN022 BKN050
     FM312200 35006KT P6SM SCT025 BKN050
     FM010000 VRB03KT P6SM SCT050 BKN150
     FM010600 VRB03KT 6SM BR SCT250
      TEMPO 0110/0114 3SM BR
     FM011500 VRB04KT P6SM SCT250=



000
FTUS42 KCAE 311759 AAA
TAFAGS
TAF AMD
KAGS 311759Z 3118/0118 35007KT P6SM BKN025 BKN050
     FM312200 35006KT P6SM SCT025 BKN050
     FM010000 VRB03KT P6SM SCT050 BKN150
     FM010600 VRB03KT 3SM BR SCT250
      TEMPO 0110/0114 1 1/2SM BR
     FM011500 VRB04KT P6SM SCT250=



000
FTUS42 KCAE 311759 AAA
TAFAGS
TAF AMD
KAGS 311759Z 3118/0118 35007KT P6SM BKN025 BKN050
     FM312200 35006KT P6SM SCT025 BKN050
     FM010000 VRB03KT P6SM SCT050 BKN150
     FM010600 VRB03KT 3SM BR SCT250
      TEMPO 0110/0114 1 1/2SM BR
     FM011500 VRB04KT P6SM SCT250=



000
FTUS42 KCAE 311722
TAFCUB
TAF
KCUB 311722Z 3118/0118 VRB05KT P6SM SCT025
      TEMPO 3118/3120 BKN025
     FM312000 VRB05KT P6SM BKN050
     FM010000 VRB03KT P6SM SCT050 BKN150
      TEMPO 0110/0114 3SM BR
     FM011500 VRB04KT P6SM SCT250=



000
FTUS42 KCAE 311722
TAFCAE
TAF
KCAE 311722Z 3118/0118 VRB04KT P6SM SCT025
      TEMPO 3118/3120 BKN025
     FM312000 36005KT P6SM SCT025 BKN050
     FM010000 VRB03KT P6SM SCT050 BKN250
      TEMPO 0110/0114 3SM BR
     FM011500 VRB04KT P6SM SCT250=



000
FTUS42 KCAE 311722
TAFOGB
TAF
KOGB 311722Z 3118/0118 36005KT P6SM BKN023
     FM312000 36006KT P6SM SCT025 BKN050
     FM010000 VRB03KT P6SM SCT050 BKN150
     FM010600 VRB03KT 4SM BR SCT250
      TEMPO 0110/0114 1 1/2SM BR
     FM011500 VRB04KT P6SM SCT250=



000
FTUS42 KCAE 311722
TAFCAE
TAF
KCAE 311722Z 3118/0118 VRB04KT P6SM SCT025
      TEMPO 3118/3120 BKN025
     FM312000 36005KT P6SM SCT025 BKN050
     FM010000 VRB03KT P6SM SCT050 BKN250
      TEMPO 0110/0114 3SM BR
     FM011500 VRB04KT P6SM SCT250=



000
FTUS42 KCAE 311722
TAFCUB
TAF
KCUB 311722Z 3118/0118 VRB05KT P6SM SCT025
      TEMPO 3118/3120 BKN025
     FM312000 VRB05KT P6SM BKN050
     FM010000 VRB03KT P6SM SCT050 BKN150
      TEMPO 0110/0114 3SM BR
     FM011500 VRB04KT P6SM SCT250=



000
FTUS42 KCAE 311722
TAFDNL
TAF
KDNL 311722Z 3118/0118 02007KT P6SM BKN012 OVC025
     FM312000 30005KT P6SM BKN025 BKN050
     FM312200 35006KT P6SM SCT025 BKN050
     FM010000 VRB03KT P6SM SCT050 BKN150
     FM010600 VRB03KT 6SM BR SCT250
      TEMPO 0110/0114 3SM BR
     FM011500 VRB04KT P6SM SCT250=



000
FTUS42 KCAE 311722
TAFAGS
TAF
KAGS 311722Z 3118/0118 35007KT P6SM BKN015 OVC025
     FM312000 30005KT P6SM BKN025 BKN050
     FM312200 35006KT P6SM SCT025 BKN050
     FM010000 VRB03KT P6SM SCT050 BKN150
     FM010600 VRB03KT 3SM BR SCT250
      TEMPO 0110/0114 1 1/2SM BR
     FM011500 VRB04KT P6SM SCT250=



000
FTUS42 KCAE 311722
TAFOGB
TAF
KOGB 311722Z 3118/0118 36005KT P6SM BKN023
     FM312000 36006KT P6SM SCT025 BKN050
     FM010000 VRB03KT P6SM SCT050 BKN150
     FM010600 VRB03KT 4SM BR SCT250
      TEMPO 0110/0114 1 1/2SM BR
     FM011500 VRB04KT P6SM SCT250=



000
FTUS42 KCAE 311722
TAFAGS
TAF
KAGS 311722Z 3118/0118 35007KT P6SM BKN015 OVC025
     FM312000 30005KT P6SM BKN025 BKN050
     FM312200 35006KT P6SM SCT025 BKN050
     FM010000 VRB03KT P6SM SCT050 BKN150
     FM010600 VRB03KT 3SM BR SCT250
      TEMPO 0110/0114 1 1/2SM BR
     FM011500 VRB04KT P6SM SCT250=



000
FTUS42 KCAE 311722
TAFDNL
TAF
KDNL 311722Z 3118/0118 02007KT P6SM BKN012 OVC025
     FM312000 30005KT P6SM BKN025 BKN050
     FM312200 35006KT P6SM SCT025 BKN050
     FM010000 VRB03KT P6SM SCT050 BKN150
     FM010600 VRB03KT 6SM BR SCT250
      TEMPO 0110/0114 3SM BR
     FM011500 VRB04KT P6SM SCT250=



000
FTUS42 KCAE 311458 AAB
TAFAGS
TAF AMD
KAGS 311458Z 3115/0112 VRB04KT 6SM BR BKN009 OVC015
     FM311600 VRB05KT P6SM BKN015 OVC050
     FM311800 30005KT P6SM SCT020 BKN050
     FM010000 VRB03KT P6SM SCT050 BKN150=



000
FTUS42 KCAE 311458 AAA
TAFDNL
TAF AMD
KDNL 311458Z 3115/0112 36007KT P6SM BKN006 OVC015
     FM311700 36007KT P6SM BKN015 OVC050
     FM311900 33005KT P6SM SCT020 BKN050
     FM010000 VRB03KT P6SM SCT050 BKN150=



000
FTUS42 KCAE 311458 AAA
TAFOGB
TAF AMD
KOGB 311458Z 3115/0112 03007KT P6SM SCT012 OVC022
      TEMPO 3115/3118 BKN012
     FM311800 03006KT P6SM SCT020 BKN050
     FM010000 VRB03KT P6SM SCT050 BKN150=



000
FTUS42 KCAE 311458 AAA
TAFCUB
TAF AMD
KCUB 311458Z 3115/0112 VRB03KT P6SM OVC014
     FM311700 VRB04KT P6SM BKN015 OVC040
     FM311900 VRB05KT P6SM SCT020 BKN050
     FM010000 VRB03KT P6SM SCT050 BKN150=



000
FTUS42 KCAE 311458 AAB
TAFCAE
TAF AMD
KCAE 311458Z 3115/0112 04004KT P6SM OVC012
     FM311700 04006KT P6SM BKN015 OVC040
     FM311900 36005KT P6SM SCT020 BKN050
     FM010000 VRB03KT P6SM SCT050 BKN150=



000
FTUS42 KCAE 311318 AAA
TAFAGS
TAF AMD
KAGS 311318Z 3113/0112 VRB05KT 4SM BR OVC005
      TEMPO 3113/3116 2SM BR OVC004
     FM311600 05006KT P6SM BKN015
     FM311800 30005KT P6SM SCT020 BKN050
     FM010000 VRB03KT P6SM SCT050 BKN150=



000
FTUS42 KCAE 311315 AAA
TAFCAE
TAF AMD
KCAE 311315Z 3113/0112 VRB03KT P6SM BKN005 OVC015
      TEMPO 3113/3116 2SM -DZ BR BKN003
     FM311600 09006KT P6SM BKN015 OVC040
     FM311800 30005KT P6SM SCT020 BKN050
     FM010000 VRB03KT P6SM SCT050 BKN150=



000
FTUS42 KCAE 311125
TAFOGB
TAF
KOGB 311125Z 3112/0112 VRB04KT P6SM SCT006 OVC015
      TEMPO 3112/3116 BKN006
     FM311600 09006KT P6SM BKN025 OVC060
     FM311800 30005KT P6SM SCT020 BKN050
     FM010000 VRB03KT P6SM SCT050 BKN150=



000
FTUS42 KCAE 311125
TAFAGS
TAF
KAGS 311125Z 3112/0112 VRB05KT 4SM BR OVC005
      TEMPO 3112/3116 6SM BR BKN007 OVC015
     FM311600 05006KT P6SM BKN015
     FM311800 30005KT P6SM SCT020 BKN050
     FM010000 VRB03KT P6SM SCT050 BKN150=



000
FTUS42 KCAE 311125
TAFCAE
TAF
KCAE 311125Z 3112/0112 VRB03KT P6SM BKN005 OVC015
     FM311600 09006KT P6SM BKN015 OVC040
     FM311800 30005KT P6SM SCT020 BKN050
     FM010000 VRB03KT P6SM SCT050 BKN150=



000
FTUS42 KCAE 311125
TAFCUB
TAF
KCUB 311125Z 3112/0112 VRB03KT P6SM BKN006 OVC015
     FM311600 09006KT P6SM BKN015 OVC040
     FM311800 30005KT P6SM SCT020 BKN050
     FM010000 VRB03KT P6SM SCT050 BKN150=



000
FTUS42 KCAE 311125
TAFDNL
TAF
KDNL 311125Z 3112/0112 VRB05KT 4SM BR OVC004
      TEMPO 3112/3116 P6SM NSW BKN006 OVC015
     FM311600 05006KT P6SM BKN015
     FM311800 30005KT P6SM SCT020 BKN050
     FM010000 VRB03KT P6SM SCT050 BKN150=



000
FTUS42 KCAE 311125
TAFCAE
TAF
KCAE 311125Z 3112/0112 VRB03KT P6SM BKN005 OVC015
     FM311600 09006KT P6SM BKN015 OVC040
     FM311800 30005KT P6SM SCT020 BKN050
     FM010000 VRB03KT P6SM SCT050 BKN150=



000
FTUS42 KCAE 311125
TAFCUB
TAF
KCUB 311125Z 3112/0112 VRB03KT P6SM BKN006 OVC015
     FM311600 09006KT P6SM BKN015 OVC040
     FM311800 30005KT P6SM SCT020 BKN050
     FM010000 VRB03KT P6SM SCT050 BKN150=



000
FTUS42 KCAE 311125
TAFDNL
TAF
KDNL 311125Z 3112/0112 VRB05KT 4SM BR OVC004
      TEMPO 3112/3116 P6SM NSW BKN006 OVC015
     FM311600 05006KT P6SM BKN015
     FM311800 30005KT P6SM SCT020 BKN050
     FM010000 VRB03KT P6SM SCT050 BKN150=



000
FTUS42 KCAE 311125
TAFOGB
TAF
KOGB 311125Z 3112/0112 VRB04KT P6SM SCT006 OVC015
      TEMPO 3112/3116 BKN006
     FM311600 09006KT P6SM BKN025 OVC060
     FM311800 30005KT P6SM SCT020 BKN050
     FM010000 VRB03KT P6SM SCT050 BKN150=



000
FTUS42 KCAE 311125
TAFAGS
TAF
KAGS 311125Z 3112/0112 VRB05KT 4SM BR OVC005
      TEMPO 3112/3116 6SM BR BKN007 OVC015
     FM311600 05006KT P6SM BKN015
     FM311800 30005KT P6SM SCT020 BKN050
     FM010000 VRB03KT P6SM SCT050 BKN150=



000
FTUS42 KCAE 310833 AAB
TAFCAE
TAF AMD
KCAE 310833Z 3109/0106 VRB03KT P6SM OVC004
      TEMPO 3110/3114 4SM BR
     FM311600 09006KT P6SM BKN015 OVC040
     FM311800 30005KT P6SM SCT020 BKN050
     FM010000 VRB03KT P6SM SCT050 BKN150=



000
FTUS42 KCAE 310833 AAB
TAFAGS
TAF AMD
KAGS 310833Z 3109/0106 VRB05KT P6SM BKN005
      TEMPO 3110/3113 2SM BR
     FM311600 05006KT P6SM BKN015
     FM311800 30005KT P6SM SCT020 BKN050
     FM010000 VRB03KT P6SM SCT050 BKN150=



000
FTUS42 KCAE 310833 AAB
TAFDNL
TAF AMD
KDNL 310833Z 3109/0106 VRB05KT P6SM OVC003
      TEMPO 3109/3113 2SM BR
     FM311600 05006KT P6SM BKN015
     FM311800 30005KT P6SM SCT020 BKN050
     FM010000 VRB03KT P6SM SCT050 BKN150=



000
FTUS42 KCAE 310833 AAB
TAFOGB
TAF AMD
KOGB 310833Z 3109/0106 VRB03KT P6SM OVC004
      TEMPO 3110/3114 3SM BR
     FM311600 09006KT P6SM BKN025 OVC060
     FM311800 30005KT P6SM SCT020 BKN050
     FM010000 VRB03KT P6SM SCT050 BKN150=



000
FTUS42 KCAE 310833 AAB
TAFCUB
TAF AMD
KCUB 310833Z 3109/0106 VRB04KT P6SM OVC004
      TEMPO 3110/3114 4SM BR
     FM311800 30005KT P6SM SCT020 BKN050
     FM010000 VRB03KT P6SM SCT050 BKN150=



000
FTUS42 KCAE 310833 AAB
TAFCUB
TAF AMD
KCUB 310833Z 3109/0106 VRB04KT P6SM OVC004
      TEMPO 3110/3114 4SM BR
     FM311800 30005KT P6SM SCT020 BKN050
     FM010000 VRB03KT P6SM SCT050 BKN150=



000
FTUS42 KCAE 310707 AAA
TAFCUB
TAF AMD
KCUB 310707Z 3107/0106 VRB04KT P6SM VCSH BKN004 OVC080
     FM311000 VRB03KT P6SM OVC005
      TEMPO 3110/3114 4SM BR
     FM311800 30005KT P6SM SCT020 BKN050
     FM010000 VRB03KT P6SM SCT050 BKN150=



000
FTUS42 KCAE 310707 AAA
TAFOGB
TAF AMD
KOGB 310707Z 3107/0106 VRB04KT P6SM VCSH BKN006 OVC080
     FM310900 VRB03KT 4SM BR OVC006
      TEMPO 3110/3114 2SM BR OVC007
     FM311600 09006KT P6SM BKN025 OVC060
     FM311800 30005KT P6SM SCT020 BKN050
     FM010000 VRB03KT P6SM SCT050 BKN150=



000
FTUS42 KCAE 310707 AAA
TAFCAE
TAF AMD
KCAE 310707Z 3107/0106 VRB04KT P6SM VCSH BKN004 OVC080
     FM311000 VRB03KT P6SM OVC005
      TEMPO 3110/3114 4SM BR
     FM311600 09006KT P6SM BKN015 OVC040
     FM311800 30005KT P6SM SCT020 BKN050
     FM010000 VRB03KT P6SM SCT050 BKN150=



000
FTUS42 KCAE 310707 AAA
TAFAGS
TAF AMD
KAGS 310707Z 3107/0106 VRB04KT P6SM BKN005 OVC025
      TEMPO 3110/3114 1SM BR BKN004
     FM311600 05006KT P6SM BKN015
     FM311800 30005KT P6SM SCT020 BKN050
     FM010000 VRB03KT P6SM SCT050 BKN150=



000
FTUS42 KCAE 310707 AAA
TAFDNL
TAF AMD
KDNL 310707Z 3107/0106 VRB04KT P6SM BKN003 OVC020
      TEMPO 3110/3114 3SM BR BKN002
     FM311600 05006KT P6SM BKN015
     FM311800 30005KT P6SM SCT020 BKN050
     FM010000 VRB03KT P6SM SCT050 BKN150=



000
FTUS42 KCAE 310531
TAFCUB
TAF
KCUB 310531Z 3106/0106 VRB04KT P6SM VCSH BKN011 OVC080
      TEMPO 3106/3108 4SM RA BR SCT008 OVC012
     FM311000 VRB03KT P6SM OVC005
      TEMPO 3110/3114 4SM BR
     FM311800 30005KT P6SM SCT020 BKN050
     FM010000 VRB03KT P6SM SCT050 BKN150=



000
FTUS42 KCAE 310531
TAFCAE
TAF
KCAE 310531Z 3106/0106 VRB04KT P6SM VCSH BKN009 OVC080
      TEMPO 3106/3108 4SM RA BR SCT008 OVC012
     FM311000 VRB03KT P6SM OVC005
      TEMPO 3110/3114 4SM BR
     FM311600 09006KT P6SM BKN015 OVC040
     FM311800 30005KT P6SM SCT020 BKN050
     FM010000 VRB03KT P6SM SCT050 BKN150=



000
FTUS42 KCAE 310531
TAFAGS
TAF
KAGS 310531Z 3106/0106 VRB04KT P6SM SCT007 OVC025
      TEMPO 3110/3114 1SM BR BKN004
     FM311600 05006KT P6SM BKN015
     FM311800 30005KT P6SM SCT020 BKN050
     FM010000 VRB03KT P6SM SCT050 BKN150=



000
FTUS42 KCAE 310531
TAFDNL
TAF
KDNL 310531Z 3106/0106 VRB04KT P6SM SCT005 OVC020
      TEMPO 3110/3114 3SM BR BKN004
     FM311600 05006KT P6SM BKN015
     FM311800 30005KT P6SM SCT020 BKN050
     FM010000 VRB03KT P6SM SCT050 BKN150=



000
FTUS42 KCAE 310531
TAFOGB
TAF
KOGB 310531Z 3106/0106 VRB04KT P6SM VCSH BKN011 OVC080
      TEMPO 3106/3108 4SM RA BR OVC008
     FM310900 VRB03KT 4SM BR OVC010
      TEMPO 3110/3114 2SM BR OVC007
     FM311600 09006KT P6SM BKN025 OVC060
     FM311800 30005KT P6SM SCT020 BKN050
     FM010000 VRB03KT P6SM SCT050 BKN150=



000
FTUS42 KCAE 310246 AAA
TAFCUB
TAF AMD
KCUB 310246Z 3103/3124 VRB03KT P6SM -RA SCT008 OVC030
      TEMPO 3103/3105 2SM RA BR BKN008
     FM310500 VRB03KT P6SM VCSH OVC007
     FM311000 VRB03KT P6SM OVC005
      TEMPO 3110/3114 4SM BR
     FM311600 09006KT P6SM BKN015 OVC040=



000
FTUS42 KCAE 310246 AAA
TAFCAE
TAF AMD
KCAE 310246Z 3103/3124 VRB05KT P6SM -RA SCT006 OVC012
      TEMPO 3103/3105 2SM RA BR BKN008
     FM310500 VRB04KT P6SM VCSH OVC007
     FM311000 VRB03KT P6SM OVC005
      TEMPO 3110/3114 4SM BR
     FM311600 09006KT P6SM BKN015 OVC040=



000
FTUS42 KCAE 310246 AAA
TAFDNL
TAF AMD
KDNL 310246Z 3103/3124 VRB04KT P6SM SCT005 OVC020
      TEMPO 3110/3114 3SM BR BKN004
     FM311600 05006KT P6SM BKN015=



000
FTUS42 KCAE 310246 AAA
TAFOGB
TAF AMD
KOGB 310246Z 3103/3124 VRB03KT P6SM VCSH SCT015 OVC060
      TEMPO 3103/3106 5SM -RA BR
     FM310900 VRB03KT 4SM BR OVC010
      TEMPO 3110/3114 1 1/2SM BR OVC007
     FM311600 09006KT P6SM BKN025 OVC060=



000
FTUS42 KCAE 310246 AAA
TAFAGS
TAF AMD
KAGS 310246Z 3103/3124 VRB04KT P6SM SCT007 OVC025
      TEMPO 3110/3114 1SM BR BKN004
     FM311600 05006KT P6SM BKN015=



000
FTUS42 KCAE 302348
TAFCAE
TAF
KCAE 302348Z 3100/3124 VRB05KT P6SM VCSH SCT009 OVC030
      TEMPO 3100/3103 5SM -RA BR BKN009
     FM310300 VRB04KT P6SM OVC007
      TEMPO 3110/3114 4SM BR
     FM311600 09006KT P6SM BKN015 OVC040=



000
FTUS42 KCAE 302348
TAFOGB
TAF
KOGB 302348Z 3100/3124 VRB04KT P6SM VCSH SCT015 BKN050
     FM310300 VRB04KT 5SM BR OVC007
      TEMPO 3110/3114 1 1/2SM BR
     FM311600 09006KT P6SM BKN025 OVC060=



000
FTUS42 KCAE 302348
TAFCUB
TAF
KCUB 302348Z 3100/3124 VRB03KT P6SM VCSH SCT009 OVC025
      TEMPO 3100/3103 5SM -RA BR BKN009
     FM310300 VRB04KT P6SM OVC007
      TEMPO 3110/3114 4SM BR
     FM311600 09006KT P6SM BKN015 OVC040=



000
FTUS42 KCAE 302348
TAFDNL
TAF
KDNL 302348Z 3100/3124 VRB05KT P6SM VCSH BKN025 OVC060
      TEMPO 3100/3102 2SM RA BR
     FM310300 VRB04KT 5SM BR OVC007
      TEMPO 3110/3114 3SM BR BKN004
     FM311600 05006KT P6SM BKN015=



000
FTUS42 KCAE 302348
TAFAGS
TAF
KAGS 302348Z 3100/3124 VRB05KT P6SM VCSH BKN025 OVC060
      TEMPO 3100/3102 5SM -RA BR
     FM310300 VRB04KT 5SM BR OVC007
      TEMPO 3110/3114 1SM BR BKN004
     FM311600 05006KT P6SM BKN015=



000
FTUS42 KCAE 302348
TAFAGS
TAF
KAGS 302348Z 3100/3124 VRB05KT P6SM VCSH BKN025 OVC060
      TEMPO 3100/3102 5SM -RA BR
     FM310300 VRB04KT 5SM BR OVC007
      TEMPO 3110/3114 1SM BR BKN004
     FM311600 05006KT P6SM BKN015=



000
FTUS42 KCAE 302348
TAFOGB
TAF
KOGB 302348Z 3100/3124 VRB04KT P6SM VCSH SCT015 BKN050
     FM310300 VRB04KT 5SM BR OVC007
      TEMPO 3110/3114 1 1/2SM BR
     FM311600 09006KT P6SM BKN025 OVC060=



000
FTUS42 KCAE 302348
TAFDNL
TAF
KDNL 302348Z 3100/3124 VRB05KT P6SM VCSH BKN025 OVC060
      TEMPO 3100/3102 2SM RA BR
     FM310300 VRB04KT 5SM BR OVC007
      TEMPO 3110/3114 3SM BR BKN004
     FM311600 05006KT P6SM BKN015=



000
FTUS42 KCAE 302348
TAFCUB
TAF
KCUB 302348Z 3100/3124 VRB03KT P6SM VCSH SCT009 OVC025
      TEMPO 3100/3103 5SM -RA BR BKN009
     FM310300 VRB04KT P6SM OVC007
      TEMPO 3110/3114 4SM BR
     FM311600 09006KT P6SM BKN015 OVC040=



000
FTUS42 KCAE 302348
TAFCAE
TAF
KCAE 302348Z 3100/3124 VRB05KT P6SM VCSH SCT009 OVC030
      TEMPO 3100/3103 5SM -RA BR BKN009
     FM310300 VRB04KT P6SM OVC007
      TEMPO 3110/3114 4SM BR
     FM311600 09006KT P6SM BKN015 OVC040=



000
FTUS42 KCAE 302133 AAB
TAFCUB
TAF AMD
KCUB 302133Z 3022/3118 07004KT P6SM SCT010 BKN035
      TEMPO 3022/3023 1SM RA BKN025
     FM302300 07006KT P6SM VCSH BKN035 OVC050
     FM310300 VRB04KT P6SM OVC007
      TEMPO 3110/3114 4SM BR
     FM311600 09006KT P6SM BKN015 OVC040=



000
FTUS42 KCAE 302132 AAB
TAFCAE
TAF AMD
KCAE 302132Z 3022/3118 05006KT P6SM SCT015 BKN030
      TEMPO 3022/3023 2SM RA BKN020
     FM302300 07006KT P6SM VCSH BKN035 OVC050
     FM310300 VRB04KT P6SM OVC007
      TEMPO 3110/3114 4SM BR
     FM311600 09006KT P6SM BKN015 OVC040=



000
FTUS42 KCAE 302017 AAA
TAFDNL
TAF AMD
KDNL 302017Z 3020/3118 08006KT P6SM BKN015
      TEMPO 3020/3022 -TSRA BKN022CB
     FM302200 07005KT P6SM VCSH BKN025
     FM310300 VRB04KT 5SM BR OVC007
      TEMPO 3110/3114 3SM BR BKN004
     FM311600 05006KT P6SM BKN015=



000
FTUS42 KCAE 302017 AAA
TAFDNL
TAF AMD
KDNL 302017Z 3020/3118 08006KT P6SM BKN015
      TEMPO 3020/3022 -TSRA BKN022CB
     FM302200 07005KT P6SM VCSH BKN025
     FM310300 VRB04KT 5SM BR OVC007
      TEMPO 3110/3114 3SM BR BKN004
     FM311600 05006KT P6SM BKN015=



000
FTUS42 KCAE 302017 AAA
TAFAGS
TAF AMD
KAGS 302017Z 3020/3118 10006KT P6SM BKN015
      TEMPO 3020/3022 -TSRA BKN025CB
     FM302200 07005KT P6SM VCSH BKN025
     FM310300 VRB04KT 5SM BR OVC007
      TEMPO 3110/3114 1SM BR BKN004
     FM311600 05006KT P6SM BKN015=



000
FTUS42 KCAE 302017 AAA
TAFAGS
TAF AMD
KAGS 302017Z 3020/3118 10006KT P6SM BKN015
      TEMPO 3020/3022 -TSRA BKN025CB
     FM302200 07005KT P6SM VCSH BKN025
     FM310300 VRB04KT 5SM BR OVC007
      TEMPO 3110/3114 1SM BR BKN004
     FM311600 05006KT P6SM BKN015=



000
FTUS42 KCAE 301815 CCB
TAFCAE
TAF COR
KCAE 301815Z 3018/3118 05006KT P6SM SCT025 BKN050
      TEMPO 3018/3022 3SM RA BKN022
     FM302200 07006KT P6SM VCSH BKN035 OVC050
     FM310300 VRB04KT P6SM OVC007
      TEMPO 3110/3114 4SM BR
     FM311600 09006KT P6SM BKN015 OVC040=



000
FTUS42 KCAE 301814 CCA
TAFCUB
TAF COR
KCUB 301814Z 3018/3118 07004KT P6SM SCT025 BKN050
      TEMPO 3018/3022 3SM RA BKN022
     FM302200 07006KT P6SM VCSH BKN035 OVC050
     FM310300 VRB04KT P6SM OVC007
      TEMPO 3110/3114 4SM BR
     FM311600 09006KT P6SM BKN015 OVC040=



000
FTUS42 KCAE 301813 AAA
TAFCAE
TAF AMD
KCAE 301813Z 3018/3118 05006KT P6SM SCT025 BKN050
      TEMPO 3019/3022 3SM RA BKN022
     FM302200 07006KT P6SM VCSH BKN035 OVC050
     FM310300 VRB04KT P6SM OVC007
      TEMPO 3110/3114 4SM BR
     FM311600 09006KT P6SM BKN015 OVC040=



000
FTUS42 KCAE 301813 AAA
TAFCUB
TAF AMD
KCUB 301813Z 3018/3118 07004KT P6SM SCT025 BKN050
      TEMPO 3019/3022 3SM RA BKN022
     FM302200 07006KT P6SM VCSH BKN035 OVC050
     FM310300 VRB04KT P6SM OVC007
      TEMPO 3110/3114 4SM BR
     FM311600 09006KT P6SM BKN015 OVC040=



000
FTUS42 KCAE 301813 AAA
TAFCAE
TAF AMD
KCAE 301813Z 3018/3118 05006KT P6SM SCT025 BKN050
      TEMPO 3019/3022 3SM RA BKN022
     FM302200 07006KT P6SM VCSH BKN035 OVC050
     FM310300 VRB04KT P6SM OVC007
      TEMPO 3110/3114 4SM BR
     FM311600 09006KT P6SM BKN015 OVC040=



000
FTUS42 KCAE 301732
TAFCUB
TAF
KCUB 301732Z 3018/3118 07004KT P6SM SCT025 BKN050
      TEMPO 3019/3022 6SM -RA BKN022
     FM302200 07006KT P6SM VCSH BKN035 OVC050
     FM310300 VRB04KT P6SM OVC007
      TEMPO 3110/3114 4SM BR
     FM311600 09006KT P6SM BKN015 OVC040=



000
FTUS42 KCAE 301732
TAFCAE
TAF
KCAE 301732Z 3018/3118 05006KT P6SM SCT025 BKN050
      TEMPO 3019/3022 6SM -RA BKN022
     FM302200 07006KT P6SM VCSH BKN035 OVC050
     FM310300 VRB04KT P6SM OVC007
      TEMPO 3110/3114 4SM BR
     FM311600 09006KT P6SM BKN015 OVC040=



000
FTUS42 KCAE 301732
TAFDNL
TAF
KDNL 301732Z 3018/3118 08006KT P6SM BKN015
      TEMPO 3018/3022 -RA BKN022
     FM302200 07005KT P6SM VCSH BKN025
     FM310300 VRB04KT 5SM BR OVC007
      TEMPO 3110/3114 3SM BR BKN004
     FM311600 05006KT P6SM BKN015=



000
FTUS42 KCAE 301732
TAFOGB
TAF
KOGB 301732Z 3018/3118 08006KT P6SM SCT025 BKN070
     FM302200 07006KT P6SM VCSH BKN035 OVC090
     FM310300 VRB04KT 5SM BR OVC007
      TEMPO 3110/3114 1 1/2SM BR
     FM311600 09006KT P6SM BKN025 OVC060=



000
FTUS42 KCAE 301732
TAFAGS
TAF
KAGS 301732Z 3018/3118 10006KT P6SM BKN015
      TEMPO 3018/3022 -RA BKN025
     FM302200 07005KT P6SM VCSH BKN025
     FM310300 VRB04KT 5SM BR OVC007
      TEMPO 3110/3114 1SM BR BKN004
     FM311600 05006KT P6SM BKN015=



000
FTUS42 KCAE 301732 AAB
TAFOGB
TAF AMD
KOGB 301732Z 3018/3118 08006KT P6SM SCT025 BKN070
     FM302200 07006KT P6SM VCSH BKN035 OVC090
     FM310300 VRB04KT 5SM BR OVC007
      TEMPO 3110/3114 1 1/2SM BR
     FM311600 09006KT P6SM BKN025 OVC060=



000
FTUS42 KCAE 301732 AAC
TAFAGS
TAF AMD
KAGS 301732Z 3018/3118 10006KT P6SM BKN015
      TEMPO 3018/3022 -RA BKN025
     FM302200 07005KT P6SM VCSH BKN025
     FM310300 VRB04KT 5SM BR OVC007
      TEMPO 3110/3114 1SM BR BKN004
     FM311600 05006KT P6SM BKN015=



000
FTUS42 KCAE 301732 AAC
TAFDNL
TAF AMD
KDNL 301732Z 3018/3118 08006KT P6SM BKN015
      TEMPO 3018/3022 -RA BKN022
     FM302200 07005KT P6SM VCSH BKN025
     FM310300 VRB04KT 5SM BR OVC007
      TEMPO 3110/3114 3SM BR BKN004
     FM311600 05006KT P6SM BKN015=



000
FTUS42 KCAE 301732 AAB
TAFCUB
TAF AMD
KCUB 301732Z 3018/3118 07004KT P6SM SCT025 BKN050
      TEMPO 3019/3022 6SM -RA BKN022
     FM302200 07006KT P6SM VCSH BKN035 OVC050
     FM310300 VRB04KT P6SM OVC007
      TEMPO 3110/3114 4SM BR
     FM311600 09006KT P6SM BKN015 OVC040=



000
FTUS42 KCAE 301732 AAC
TAFCAE
TAF AMD
KCAE 301732Z 3018/3118 05006KT P6SM SCT025 BKN050
      TEMPO 3019/3022 6SM -RA BKN022
     FM302200 07006KT P6SM VCSH BKN035 OVC050
     FM310300 VRB04KT P6SM OVC007
      TEMPO 3110/3114 4SM BR
     FM311600 09006KT P6SM BKN015 OVC040=



000
FTUS42 KCAE 301732
TAFCUB
TAF
KCUB 301732Z 3018/3118 07004KT P6SM SCT025 BKN050
      TEMPO 3019/3022 6SM -RA BKN022
     FM302200 07006KT P6SM VCSH BKN035 OVC050
     FM310300 VRB04KT P6SM OVC007
      TEMPO 3110/3114 4SM BR
     FM311600 09006KT P6SM BKN015 OVC040=



000
FTUS42 KCAE 301732
TAFCAE
TAF
KCAE 301732Z 3018/3118 05006KT P6SM SCT025 BKN050
      TEMPO 3019/3022 6SM -RA BKN022
     FM302200 07006KT P6SM VCSH BKN035 OVC050
     FM310300 VRB04KT P6SM OVC007
      TEMPO 3110/3114 4SM BR
     FM311600 09006KT P6SM BKN015 OVC040=



000
FTUS42 KCAE 301732
TAFOGB
TAF
KOGB 301732Z 3018/3118 08006KT P6SM SCT025 BKN070
     FM302200 07006KT P6SM VCSH BKN035 OVC090
     FM310300 VRB04KT 5SM BR OVC007
      TEMPO 3110/3114 1 1/2SM BR
     FM311600 09006KT P6SM BKN025 OVC060=



000
FTUS42 KCAE 301732 AAC
TAFCAE
TAF AMD
KCAE 301732Z 3018/3118 05006KT P6SM SCT025 BKN050
      TEMPO 3019/3022 6SM -RA BKN022
     FM302200 07006KT P6SM VCSH BKN035 OVC050
     FM310300 VRB04KT P6SM OVC007
      TEMPO 3110/3114 4SM BR
     FM311600 09006KT P6SM BKN015 OVC040=



000
FTUS42 KCAE 301732
TAFDNL
TAF
KDNL 301732Z 3018/3118 08006KT P6SM BKN015
      TEMPO 3018/3022 -RA BKN022
     FM302200 07005KT P6SM VCSH BKN025
     FM310300 VRB04KT 5SM BR OVC007
      TEMPO 3110/3114 3SM BR BKN004
     FM311600 05006KT P6SM BKN015=



000
FTUS42 KCAE 301732
TAFAGS
TAF
KAGS 301732Z 3018/3118 10006KT P6SM BKN015
      TEMPO 3018/3022 -RA BKN025
     FM302200 07005KT P6SM VCSH BKN025
     FM310300 VRB04KT 5SM BR OVC007
      TEMPO 3110/3114 1SM BR BKN004
     FM311600 05006KT P6SM BKN015=



000
FTUS42 KCAE 301732 AAB
TAFOGB
TAF AMD
KOGB 301732Z 3018/3118 08006KT P6SM SCT025 BKN070
     FM302200 07006KT P6SM VCSH BKN035 OVC090
     FM310300 VRB04KT 5SM BR OVC007
      TEMPO 3110/3114 1 1/2SM BR
     FM311600 09006KT P6SM BKN025 OVC060=



000
FTUS42 KCAE 301732 AAC
TAFAGS
TAF AMD
KAGS 301732Z 3018/3118 10006KT P6SM BKN015
      TEMPO 3018/3022 -RA BKN025
     FM302200 07005KT P6SM VCSH BKN025
     FM310300 VRB04KT 5SM BR OVC007
      TEMPO 3110/3114 1SM BR BKN004
     FM311600 05006KT P6SM BKN015=



000
FTUS42 KCAE 301732 AAB
TAFCUB
TAF AMD
KCUB 301732Z 3018/3118 07004KT P6SM SCT025 BKN050
      TEMPO 3019/3022 6SM -RA BKN022
     FM302200 07006KT P6SM VCSH BKN035 OVC050
     FM310300 VRB04KT P6SM OVC007
      TEMPO 3110/3114 4SM BR
     FM311600 09006KT P6SM BKN015 OVC040=



000
FTUS42 KCAE 301732 AAC
TAFDNL
TAF AMD
KDNL 301732Z 3018/3118 08006KT P6SM BKN015
      TEMPO 3018/3022 -RA BKN022
     FM302200 07005KT P6SM VCSH BKN025
     FM310300 VRB04KT 5SM BR OVC007
      TEMPO 3110/3114 3SM BR BKN004
     FM311600 05006KT P6SM BKN015=



000
FTUS42 KCAE 301645 AAB
TAFDNL
TAF AMD
KDNL 301645Z 3017/3112 10005KT P6SM -RA BKN010 OVC050
     FM301800 11006KT P6SM SCT025 OVC045
     FM310300 VRB04KT 5SM BR OVC007=



000
FTUS42 KCAE 301645 AAB
TAFDNL
TAF AMD
KDNL 301645Z 3017/3112 10005KT P6SM -RA BKN010 OVC050
     FM301800 11006KT P6SM SCT025 OVC045
     FM310300 VRB04KT 5SM BR OVC007=



000
FTUS42 KCAE 301644 AAB
TAFAGS
TAF AMD
KAGS 301644Z 3017/3112 11005KT 5SM -RA BR BKN010 OVC050
     FM301800 11006KT P6SM VCSH SCT015 OVC035
     FM310300 VRB04KT 5SM BR OVC007=



000
FTUS42 KCAE 301427 AAA
TAFCAE
TAF AMD
KCAE 301427Z 3014/3112 11004KT P6SM -RA SCT022 BKN050
      TEMPO 3015/3019 5SM -RA BR BKN022
     FM301900 11006KT P6SM VCSH BKN035 OVC050
     FM310300 VRB04KT 5SM BR OVC004=



000
FTUS42 KCAE 301427 AAA
TAFCAE
TAF AMD
KCAE 301427Z 3014/3112 11004KT P6SM -RA SCT022 BKN050
      TEMPO 3015/3019 5SM -RA BR BKN022
     FM301900 11006KT P6SM VCSH BKN035 OVC050
     FM310300 VRB04KT 5SM BR OVC004=



000
FTUS42 KCAE 301427 AAA
TAFAGS
TAF AMD
KAGS 301427Z 3014/3112 VRB03KT P6SM -RA BKN015 OVC050
      TEMPO 3014/3017 3SM RA SCT015 OVC050
     FM301700 11006KT P6SM VCSH SCT025 OVC045
     FM310300 VRB04KT 5SM BR OVC004=



000
FTUS42 KCAE 301427 AAA
TAFDNL
TAF AMD
KDNL 301427Z 3014/3112 09005KT P6SM -RA BKN012 OVC050
      TEMPO 3014/3017 3SM RA SCT016 OVC050
     FM301700 11006KT P6SM VCSH SCT025 OVC045
     FM310300 VRB04KT 5SM BR OVC004=



000
FTUS42 KCAE 301427 AAA
TAFOGB
TAF AMD
KOGB 301427Z 3014/3112 08006KT P6SM VCSH BKN035 OVC080
     FM301900 11006KT P6SM -RA SCT025 OVC100
     FM310300 VRB04KT 5SM BR OVC004=



000
FTUS42 KCAE 301427 AAA
TAFCUB
TAF AMD
KCUB 301427Z 3014/3112 11004KT P6SM -RA BKN050 OVC100
      TEMPO 3015/3019 5SM -RA BR BKN022
     FM301900 11006KT P6SM VCSH BKN025 OVC045
     FM310300 VRB04KT 5SM BR OVC004=



000
FTUS42 KCAE 301427 AAA
TAFOGB
TAF AMD
KOGB 301427Z 3014/3112 08006KT P6SM VCSH BKN035 OVC080
     FM301900 11006KT P6SM -RA SCT025 OVC100
     FM310300 VRB04KT 5SM BR OVC004=



000
FTUS42 KCAE 301427 AAA
TAFAGS
TAF AMD
KAGS 301427Z 3014/3112 VRB03KT P6SM -RA BKN015 OVC050
      TEMPO 3014/3017 3SM RA SCT015 OVC050
     FM301700 11006KT P6SM VCSH SCT025 OVC045
     FM310300 VRB04KT 5SM BR OVC004=



000
FTUS42 KCAE 301427 AAA
TAFDNL
TAF AMD
KDNL 301427Z 3014/3112 09005KT P6SM -RA BKN012 OVC050
      TEMPO 3014/3017 3SM RA SCT016 OVC050
     FM301700 11006KT P6SM VCSH SCT025 OVC045
     FM310300 VRB04KT 5SM BR OVC004=



000
FTUS42 KCAE 301427 AAA
TAFCUB
TAF AMD
KCUB 301427Z 3014/3112 11004KT P6SM -RA BKN050 OVC100
      TEMPO 3015/3019 5SM -RA BR BKN022
     FM301900 11006KT P6SM VCSH BKN025 OVC045
     FM310300 VRB04KT 5SM BR OVC004=



000
FTUS42 KCAE 301126
TAFAGS
TAF
KAGS 301126Z 3012/3112 VRB03KT P6SM -RA BKN020 OVC050
      TEMPO 3012/3015 3SM RA BKN014
     FM301500 11006KT P6SM VCSH SCT035 OVC080
     FM301900 11006KT P6SM VCSH BKN025 OVC045
     FM310300 VRB04KT 5SM BR OVC004=



000
FTUS42 KCAE 301126
TAFOGB
TAF
KOGB 301126Z 3012/3112 08006KT P6SM -RA BKN050 OVC080
     FM301400 11006KT P6SM VCSH BKN035 OVC080
     FM301900 11006KT P6SM VCSH BKN025 OVC045
     FM310300 VRB04KT 5SM BR OVC004=



000
FTUS42 KCAE 301126
TAFDNL
TAF
KDNL 301126Z 3012/3112 09005KT P6SM -RA BKN022 OVC050
      TEMPO 3012/3015 3SM RA BKN016
     FM301500 11006KT P6SM VCSH BKN035 OVC080
     FM301900 11006KT P6SM VCSH BKN025 OVC045
     FM310300 VRB04KT 5SM BR OVC004=



000
FTUS42 KCAE 301126
TAFCUB
TAF
KCUB 301126Z 3012/3112 11004KT P6SM -RA BKN050 OVC100
     FM301500 11006KT P6SM VCSH SCT035 OVC080
     FM301900 11006KT P6SM VCSH BKN025 OVC045
     FM310300 VRB04KT 5SM BR OVC004=



000
FTUS42 KCAE 301126
TAFCAE
TAF
KCAE 301126Z 3012/3112 11004KT P6SM -RA BKN050 OVC100
     FM301500 11006KT P6SM VCSH SCT035 OVC080
     FM301900 11006KT P6SM VCSH BKN035 OVC050
     FM310300 VRB04KT 5SM BR OVC004=



000
FTUS42 KCAE 301126
TAFDNL
TAF
KDNL 301126Z 3012/3112 09005KT P6SM -RA BKN022 OVC050
      TEMPO 3012/3015 3SM RA BKN016
     FM301500 11006KT P6SM VCSH BKN035 OVC080
     FM301900 11006KT P6SM VCSH BKN025 OVC045
     FM310300 VRB04KT 5SM BR OVC004=



000
FTUS42 KCAE 301126
TAFOGB
TAF
KOGB 301126Z 3012/3112 08006KT P6SM -RA BKN050 OVC080
     FM301400 11006KT P6SM VCSH BKN035 OVC080
     FM301900 11006KT P6SM VCSH BKN025 OVC045
     FM310300 VRB04KT 5SM BR OVC004=



000
FTUS42 KCAE 301126
TAFAGS
TAF
KAGS 301126Z 3012/3112 VRB03KT P6SM -RA BKN020 OVC050
      TEMPO 3012/3015 3SM RA BKN014
     FM301500 11006KT P6SM VCSH SCT035 OVC080
     FM301900 11006KT P6SM VCSH BKN025 OVC045
     FM310300 VRB04KT 5SM BR OVC004=



000
FTUS42 KCAE 301126
TAFCUB
TAF
KCUB 301126Z 3012/3112 11004KT P6SM -RA BKN050 OVC100
     FM301500 11006KT P6SM VCSH SCT035 OVC080
     FM301900 11006KT P6SM VCSH BKN025 OVC045
     FM310300 VRB04KT 5SM BR OVC004=



000
FTUS42 KCAE 301126
TAFCAE
TAF
KCAE 301126Z 3012/3112 11004KT P6SM -RA BKN050 OVC100
     FM301500 11006KT P6SM VCSH SCT035 OVC080
     FM301900 11006KT P6SM VCSH BKN035 OVC050
     FM310300 VRB04KT 5SM BR OVC004=



000
FTUS42 KCAE 301013 AAB
TAFAGS
TAF AMD
KAGS 301013Z 3010/3106 00000KT P6SM VCSH BKN050 OVC100
      TEMPO 3011/3012 6SM -RA BR
     FM301200 11005KT 6SM -RA BR BKN050 OVC100
     FM301500 11006KT P6SM VCSH SCT035 OVC080
     FM301900 11006KT P6SM VCSH BKN025 OVC045
     FM310300 VRB04KT 5SM BR OVC004=



000
FTUS42 KCAE 301013 AAB
TAFOGB
TAF AMD
KOGB 301013Z 3010/3106 00000KT P6SM VCSH BKN050 OVC100
      TEMPO 3010/3011 4SM -RA BR
     FM301100 VRB04KT 6SM -RA BR BKN050 OVC080
     FM301400 11006KT P6SM VCSH BKN035 OVC080
     FM301900 11006KT P6SM VCSH BKN025 OVC045
     FM310300 VRB04KT 5SM BR OVC004=



000
FTUS42 KCAE 301013 AAB
TAFDNL
TAF AMD
KDNL 301013Z 3010/3106 00000KT P6SM VCSH BKN050 OVC100
      TEMPO 3011/3012 6SM -RA BR
     FM301200 11005KT 6SM -RA BR BKN050 OVC100
     FM301500 11006KT P6SM VCSH BKN035 OVC080
     FM301900 11006KT P6SM VCSH BKN025 OVC045
     FM310300 VRB04KT 5SM BR OVC004=



000
FTUS42 KCAE 301013 AAA
TAFCUB
TAF AMD
KCUB 301013Z 3010/3106 00000KT P6SM VCSH BKN050 OVC100
      TEMPO 3011/3012 6SM -RA BR
     FM301200 11005KT 6SM -RA BR BKN050 OVC100
     FM301500 11006KT P6SM VCSH SCT035 OVC080
     FM301900 11006KT P6SM VCSH BKN025 OVC045
     FM310300 VRB04KT 5SM BR OVC004=



000
FTUS42 KCAE 301013 AAC
TAFCAE
TAF AMD
KCAE 301013Z 3010/3106 00000KT P6SM VCSH BKN050 OVC100
      TEMPO 3011/3012 6SM -RA BR
     FM301200 11005KT 6SM -RA BR BKN050 OVC100
     FM301500 11006KT P6SM VCSH SCT035 OVC080
     FM301900 11006KT P6SM VCSH BKN035 OVC050
     FM310300 VRB04KT 5SM BR OVC004=



000
FTUS42 KCAE 301013 AAB
TAFAGS
TAF AMD
KAGS 301013Z 3010/3106 00000KT P6SM VCSH BKN050 OVC100
      TEMPO 3011/3012 6SM -RA BR
     FM301200 11005KT 6SM -RA BR BKN050 OVC100
     FM301500 11006KT P6SM VCSH SCT035 OVC080
     FM301900 11006KT P6SM VCSH BKN025 OVC045
     FM310300 VRB04KT 5SM BR OVC004=



000
FTUS42 KCAE 301013 AAB
TAFDNL
TAF AMD
KDNL 301013Z 3010/3106 00000KT P6SM VCSH BKN050 OVC100
      TEMPO 3011/3012 6SM -RA BR
     FM301200 11005KT 6SM -RA BR BKN050 OVC100
     FM301500 11006KT P6SM VCSH BKN035 OVC080
     FM301900 11006KT P6SM VCSH BKN025 OVC045
     FM310300 VRB04KT 5SM BR OVC004=



000
FTUS42 KCAE 301013 AAB
TAFOGB
TAF AMD
KOGB 301013Z 3010/3106 00000KT P6SM VCSH BKN050 OVC100
      TEMPO 3010/3011 4SM -RA BR
     FM301100 VRB04KT 6SM -RA BR BKN050 OVC080
     FM301400 11006KT P6SM VCSH BKN035 OVC080
     FM301900 11006KT P6SM VCSH BKN025 OVC045
     FM310300 VRB04KT 5SM BR OVC004=



000
FTUS42 KCAE 301013 AAA
TAFCUB
TAF AMD
KCUB 301013Z 3010/3106 00000KT P6SM VCSH BKN050 OVC100
      TEMPO 3011/3012 6SM -RA BR
     FM301200 11005KT 6SM -RA BR BKN050 OVC100
     FM301500 11006KT P6SM VCSH SCT035 OVC080
     FM301900 11006KT P6SM VCSH BKN025 OVC045
     FM310300 VRB04KT 5SM BR OVC004=



000
FTUS42 KCAE 301013 AAC
TAFCAE
TAF AMD
KCAE 301013Z 3010/3106 00000KT P6SM VCSH BKN050 OVC100
      TEMPO 3011/3012 6SM -RA BR
     FM301200 11005KT 6SM -RA BR BKN050 OVC100
     FM301500 11006KT P6SM VCSH SCT035 OVC080
     FM301900 11006KT P6SM VCSH BKN035 OVC050
     FM310300 VRB04KT 5SM BR OVC004=



000
FTUS42 KCAE 300851 AAB
TAFCAE
TAF AMD
KCAE 300851Z 3009/3106 00000KT P6SM BKN100 OVC150
     FM301200 11005KT P6SM VCSH BKN050 OVC100
      TEMPO 3012/3015 4SM -RA BR BKN045
     FM301900 11006KT P6SM VCSH BKN035 OVC050=



000
FTUS42 KCAE 300846 AAA
TAFOGB
TAF AMD
KOGB 300846Z 3009/3106 00000KT P6SM OVC150
     FM301000 00000KT P6SM VCSH SCT035 OVC100
      TEMPO 3010/3012 4SM -RA BR
     FM301400 11006KT P6SM VCSH BKN035 OVC080
     FM301900 11006KT P6SM VCSH BKN035 OVC050=



000
FTUS42 KCAE 300806 AAA
TAFDNL
TAF AMD
KDNL 300806Z 3008/3106 VRB03KT P6SM SCT090 OVC150
     FM301000 VRB03KT P6SM VCSH BKN035 OVC100
      TEMPO 3010/3012 4SM -RA BR
     FM301400 10007KT P6SM VCSH BKN035 OVC080
     FM301800 10007KT P6SM VCSH BKN035 OVC050=



000
FTUS42 KCAE 300805 AAA
TAFAGS
TAF AMD
KAGS 300805Z 3008/3106 00000KT P6SM SCT090 OVC150
     FM301000 00000KT P6SM VCSH SCT035 OVC100
      TEMPO 3010/3012 4SM -RA BR
     FM301400 11006KT P6SM VCSH BKN035 OVC080
     FM301800 11006KT P6SM VCSH BKN035 OVC050=



000
FTUS42 KCAE 300528
TAFCAE
TAF
KCAE 300528Z 3006/3106 VRB03KT P6SM OVC150
     FM300800 VRB03KT P6SM BKN100 OVC150
     FM301500 10007KT P6SM VCSH BKN050 OVC100=



000
FTUS42 KCAE 300528
TAFDNL
TAF
KDNL 300528Z 3006/3106 00000KT P6SM SCT090 OVC150
     FM300800 VRB03KT P6SM VCSH BKN035 OVC100
      TEMPO 3008/3010 4SM -RA BR
     FM301400 10007KT P6SM VCSH BKN035 OVC080
     FM301800 10007KT P6SM VCSH BKN035 OVC050=



000
FTUS42 KCAE 300528
TAFAGS
TAF
KAGS 300528Z 3006/3106 00000KT P6SM SCT090 OVC150
     FM300800 00000KT P6SM VCSH SCT035 OVC100
      TEMPO 3008/3010 4SM -RA BR
     FM301400 11006KT P6SM VCSH BKN035 OVC080
     FM301800 11006KT P6SM VCSH BKN035 OVC050=



000
FTUS42 KCAE 300528
TAFCUB
TAF
KCUB 300528Z 3006/3106 00000KT P6SM OVC150
     FM300800 00000KT P6SM BKN100 OVC150
     FM301500 11005KT P6SM VCSH BKN050 OVC100=



000
FTUS42 KCAE 300528
TAFOGB
TAF
KOGB 300528Z 3006/3106 00000KT P6SM OVC150
     FM301000 00000KT P6SM SCT035 OVC100
     FM301400 11006KT P6SM VCSH BKN035 OVC080
     FM301900 11006KT P6SM VCSH BKN035 OVC050=



000
FTUS42 KCAE 300528
TAFAGS
TAF
KAGS 300528Z 3006/3106 00000KT P6SM SCT090 OVC150
     FM300800 00000KT P6SM VCSH SCT035 OVC100
      TEMPO 3008/3010 4SM -RA BR
     FM301400 11006KT P6SM VCSH BKN035 OVC080
     FM301800 11006KT P6SM VCSH BKN035 OVC050=



000
FTUS42 KCAE 300528
TAFCAE
TAF
KCAE 300528Z 3006/3106 VRB03KT P6SM OVC150
     FM300800 VRB03KT P6SM BKN100 OVC150
     FM301500 10007KT P6SM VCSH BKN050 OVC100=



000
FTUS42 KCAE 300528
TAFDNL
TAF
KDNL 300528Z 3006/3106 00000KT P6SM SCT090 OVC150
     FM300800 VRB03KT P6SM VCSH BKN035 OVC100
      TEMPO 3008/3010 4SM -RA BR
     FM301400 10007KT P6SM VCSH BKN035 OVC080
     FM301800 10007KT P6SM VCSH BKN035 OVC050=



000
FTUS42 KCAE 300528
TAFCUB
TAF
KCUB 300528Z 3006/3106 00000KT P6SM OVC150
     FM300800 00000KT P6SM BKN100 OVC150
     FM301500 11005KT P6SM VCSH BKN050 OVC100=



000
FTUS42 KCAE 300528
TAFOGB
TAF
KOGB 300528Z 3006/3106 00000KT P6SM OVC150
     FM301000 00000KT P6SM SCT035 OVC100
     FM301400 11006KT P6SM VCSH BKN035 OVC080
     FM301900 11006KT P6SM VCSH BKN035 OVC050=



000
FTUS42 KCAE 300236 AAA
TAFCAE
TAF AMD
KCAE 300236Z 3003/3024 VRB03KT P6SM OVC150
     FM300800 VRB03KT P6SM BKN100 OVC150
     FM301500 10007KT P6SM BKN050 OVC100=



000
FTUS42 KCAE 300236 AAA
TAFAGS
TAF AMD
KAGS 300236Z 3003/3024 VRB03KT P6SM SCT090 OVC150
     FM300900 00000KT P6SM SCT035 OVC100
      TEMPO 3010/3012 4SM BR
     FM301400 11006KT P6SM BKN035 OVC080
     FM301800 11006KT P6SM VCSH BKN035 OVC050=



000
FTUS42 KCAE 300236 AAA
TAFDNL
TAF AMD
KDNL 300236Z 3003/3024 VRB04KT P6SM SCT090 OVC150
     FM300900 VRB03KT P6SM SCT035 OVC100
     FM301400 10007KT P6SM BKN035 OVC080
     FM301800 10007KT P6SM VCSH BKN035 OVC050=



000
FTUS42 KCAE 300236 AAA
TAFCUB
TAF AMD
KCUB 300236Z 3003/3024 00000KT P6SM OVC150
     FM300800 00000KT P6SM BKN100 OVC150
     FM301500 11005KT P6SM BKN050 OVC100=



000
FTUS42 KCAE 300236 AAA
TAFOGB
TAF AMD
KOGB 300236Z 3003/3024 00000KT P6SM OVC150
     FM301000 00000KT P6SM SCT035 OVC100
     FM301400 11006KT P6SM BKN035 OVC080
     FM301900 11006KT P6SM VCSH BKN035 OVC050=



000
FTUS42 KCAE 292342
TAFOGB
TAF
KOGB 292342Z 3000/3024 VRB03KT P6SM BKN150
     FM300900 00000KT P6SM SCT035 OVC100
     FM301400 11006KT P6SM BKN035 OVC080
     FM301900 11006KT P6SM VCSH BKN035 OVC050=



000
FTUS42 KCAE 292342
TAFCUB
TAF
KCUB 292342Z 3000/3024 VRB03KT P6SM BKN150
     FM300800 00000KT P6SM BKN100 OVC150
     FM301500 11005KT P6SM BKN050 OVC100=



000
FTUS42 KCAE 292342
TAFCAE
TAF
KCAE 292342Z 3000/3024 VRB04KT P6SM BKN150
     FM300800 VRB03KT P6SM BKN100 OVC150
     FM301500 10007KT P6SM BKN050 OVC100=



000
FTUS42 KCAE 292342
TAFAGS
TAF
KAGS 292342Z 3000/3024 VRB03KT P6SM BKN120
     FM300800 00000KT 4SM BR SCT035 OVC100
     FM301400 11006KT P6SM BKN035 OVC080
     FM301800 11006KT P6SM VCSH BKN035 OVC050=



000
FTUS42 KCAE 292342
TAFDNL
TAF
KDNL 292342Z 3000/3024 VRB04KT P6SM BKN120
     FM300800 VRB03KT P6SM SCT035 OVC100
     FM301400 10007KT P6SM BKN035 OVC080
     FM301800 10007KT P6SM VCSH BKN035 OVC050=



000
FTUS42 KCAE 292135 AAB
TAFCUB
TAF AMD
KCUB 292135Z 2922/3018 07006KT P6SM FEW040 BKN150
     FM292300 VRB03KT P6SM FEW040 BKN150
     FM301400 11006KT P6SM SCT030 OVC150=



000
FTUS42 KCAE 292135 AAA
TAFAGS
TAF AMD
KAGS 292135Z 2922/3018 09007KT P6SM SCT040 BKN150
     FM292300 VRB03KT P6SM FEW040 BKN120
     FM300900 00000KT 4SM BR SCT025 OVC100
     FM301400 11006KT P6SM SCT030 OVC100=



000
FTUS42 KCAE 292135 AAA
TAFDNL
TAF AMD
KDNL 292135Z 2922/3018 07007KT P6SM SCT040 BKN150
     FM292300 VRB03KT P6SM FEW040 BKN120
     FM301400 11006KT P6SM SCT030 OVC100=



000
FTUS42 KCAE 292135 AAB
TAFCAE
TAF AMD
KCAE 292135Z 2922/3018 07007KT P6SM FEW040 BKN150
     FM292300 VRB03KT P6SM FEW040 BKN150
     FM301400 11006KT P6SM SCT030 OVC150=



000
FTUS42 KCAE 292135 AAA
TAFOGB
TAF AMD
KOGB 292135Z 2922/3018 07006KT P6SM SCT040 BKN150
     FM292300 VRB03KT P6SM FEW040 BKN150
     FM300900 00000KT 4SM BR SCT025 OVC100
     FM301400 11006KT P6SM SCT030 OVC100=



000
FTUS42 KCAE 291810 AAA
TAFCAE
TAF AMD
KCAE 291810Z 2918/3018 06007KT P6SM FEW040 BKN150
     FM292300 VRB03KT P6SM FEW040 BKN150
     FM301400 11006KT P6SM SCT030 OVC150=



000
FTUS42 KCAE 291810 AAA
TAFCUB
TAF AMD
KCUB 291810Z 2918/3018 07007KT P6SM FEW040 BKN150
     FM292300 VRB03KT P6SM FEW040 BKN150
     FM301400 11006KT P6SM SCT030 OVC150=



000
FTUS42 KCAE 291720
TAFCUB
TAF
KCUB 291720Z 2918/3018 07007KT P6SM SCT040 BKN150
     FM292300 VRB03KT P6SM FEW040 BKN150
     FM301400 11006KT P6SM SCT030 OVC150=



000
FTUS42 KCAE 291720
TAFOGB
TAF
KOGB 291720Z 2918/3018 06007KT P6SM SCT040 BKN150
     FM292300 VRB03KT P6SM FEW040 BKN150
     FM300900 00000KT 4SM BR SCT025 OVC100
     FM301400 11006KT P6SM SCT030 OVC100=



000
FTUS42 KCAE 291720
TAFCAE
TAF
KCAE 291720Z 2918/3018 06007KT P6SM SCT040 BKN150
     FM292300 VRB03KT P6SM FEW040 BKN150
     FM301400 11006KT P6SM SCT030 OVC150=



000
FTUS42 KCAE 291720
TAFAGS
TAF
KAGS 291720Z 2918/3018 08007KT P6SM SCT040 BKN150
     FM292300 VRB03KT P6SM FEW040 BKN120
     FM300900 00000KT 4SM BR SCT025 OVC100
     FM301400 11006KT P6SM SCT030 OVC100=



000
FTUS42 KCAE 291720
TAFDNL
TAF
KDNL 291720Z 2918/3018 08007KT P6SM SCT040 BKN150
     FM292300 VRB03KT P6SM FEW040 BKN120
     FM301400 11006KT P6SM SCT030 OVC100=



000
FTUS42 KCAE 291435 AAB
TAFOGB
TAF AMD
KOGB 291435Z 2915/3012 05006KT P6SM BKN250
     FM291700 08008KT P6SM SCT040 BKN250
     FM292300 VRB03KT P6SM FEW040 BKN250=



000
FTUS42 KCAE 291435 AAB
TAFDNL
TAF AMD
KDNL 291435Z 2915/3012 VRB03KT P6SM BKN250
     FM291700 09008KT P6SM SCT040 BKN250
     FM292300 VRB03KT P6SM FEW040 BKN250=



000
FTUS42 KCAE 291435 AAB
TAFOGB
TAF AMD
KOGB 291435Z 2915/3012 05006KT P6SM BKN250
     FM291700 08008KT P6SM SCT040 BKN250
     FM292300 VRB03KT P6SM FEW040 BKN250=



000
FTUS42 KCAE 291435 AAB
TAFAGS
TAF AMD
KAGS 291435Z 2915/3012 VRB03KT P6SM BKN250
     FM291700 09008KT P6SM SCT040 BKN250
     FM292300 VRB03KT P6SM FEW040 BKN250=



000
FTUS42 KCAE 291435 AAB
TAFCAE
TAF AMD
KCAE 291435Z 2915/3012 09003KT P6SM SCT130 BKN250
     FM291700 08007KT P6SM SCT040 BKN250
     FM292300 VRB03KT P6SM FEW040 BKN250=



000
FTUS42 KCAE 291435 AAB
TAFDNL
TAF AMD
KDNL 291435Z 2915/3012 VRB03KT P6SM BKN250
     FM291700 09008KT P6SM SCT040 BKN250
     FM292300 VRB03KT P6SM FEW040 BKN250=



000
FTUS42 KCAE 291435 AAB
TAFCUB
TAF AMD
KCUB 291435Z 2915/3012 VRB03KT P6SM SCT130 BKN250
     FM291700 08007KT P6SM SCT040 BKN250
     FM292300 VRB03KT P6SM FEW040 BKN250=



000
FTUS42 KCAE 291435 AAB
TAFAGS
TAF AMD
KAGS 291435Z 2915/3012 VRB03KT P6SM BKN250
     FM291700 09008KT P6SM SCT040 BKN250
     FM292300 VRB03KT P6SM FEW040 BKN250=



000
FTUS42 KCAE 291435 AAB
TAFCUB
TAF AMD
KCUB 291435Z 2915/3012 VRB03KT P6SM SCT130 BKN250
     FM291700 08007KT P6SM SCT040 BKN250
     FM292300 VRB03KT P6SM FEW040 BKN250=



000
FTUS42 KCAE 291435 AAB
TAFCAE
TAF AMD
KCAE 291435Z 2915/3012 09003KT P6SM SCT130 BKN250
     FM291700 08007KT P6SM SCT040 BKN250
     FM292300 VRB03KT P6SM FEW040 BKN250=



000
FTUS42 KCAE 291429 AAA
TAFDNL
TAF AMD
KDNL 291429Z 2914/3012 VRB03KT P6SM BKN250
     FM291700 09008KT P6SM SCT040 BKN250
     FM292300 VRB03KT P6SM FEW040 BKN250=



000
FTUS42 KCAE 291429 AAA
TAFAGS
TAF AMD
KAGS 291429Z 2914/3012 VRB03KT P6SM BKN250
     FM291700 09008KT P6SM SCT040 BKN250
     FM292300 VRB03KT P6SM FEW040 BKN250=



000
FTUS42 KCAE 291429 AAA
TAFDNL
TAF AMD
KDNL 291429Z 2914/3012 VRB03KT P6SM BKN250
     FM291700 09008KT P6SM SCT040 BKN250
     FM292300 VRB03KT P6SM FEW040 BKN250=



000
FTUS42 KCAE 291429 AAA
TAFAGS
TAF AMD
KAGS 291429Z 2914/3012 VRB03KT P6SM BKN250
     FM291700 09008KT P6SM SCT040 BKN250
     FM292300 VRB03KT P6SM FEW040 BKN250=



000
FTUS42 KCAE 291426 AAA
TAFOGB
TAF AMD
KOGB 291426Z 2914/3012 05006KT P6SM BKN250
     FM291700 08008KT P6SM SCT040 BKN250
     FM292300 VRB03KT P6SM FEW040 BKN250=



000
FTUS42 KCAE 291424 AAA
TAFCUB
TAF AMD
KCUB 291424Z 2914/3012 VRB03KT P6SM SCT130 BKN250
     FM291700 08007KT P6SM SCT040 BKN250
     FM292300 VRB03KT P6SM FEW040 BKN250=



000
FTUS42 KCAE 291424 AAA
TAFCAE
TAF AMD
KCAE 291424Z 2914/3012 09003KT P6SM SCT130 BKN250
     FM291700 08007KT P6SM SCT040 BKN250
     FM292300 VRB03KT P6SM FEW040 BKN250=



000
FTUS42 KCAE 291120
TAFOGB
TAF
KOGB 291120Z 2912/3012 00000KT P6SM BKN250
     FM291500 08008KT P6SM SCT040 BKN250
     FM292300 VRB03KT P6SM FEW040 BKN250=



000
FTUS42 KCAE 291120
TAFCUB
TAF
KCUB 291120Z 2912/3012 00000KT P6SM BKN250
     FM291500 08007KT P6SM SCT040 BKN250
     FM292300 VRB03KT P6SM FEW040 BKN250=



000
FTUS42 KCAE 291120
TAFDNL
TAF
KDNL 291120Z 2912/3012 VRB03KT P6SM BKN250
     FM291500 09008KT P6SM SCT040 BKN250
     FM292300 VRB03KT P6SM FEW040 BKN250=



000
FTUS42 KCAE 291120
TAFAGS
TAF
KAGS 291120Z 2912/3012 00000KT 6SM BR BKN250
      TEMPO 2912/2913 4SM BR SCT003
     FM291500 09008KT P6SM SCT040 BKN250
     FM292300 VRB03KT P6SM FEW040 BKN250=



000
FTUS42 KCAE 291120
TAFAGS
TAF
KAGS 291120Z 2912/3012 00000KT 6SM BR BKN250
      TEMPO 2912/2913 4SM BR SCT003
     FM291500 09008KT P6SM SCT040 BKN250
     FM292300 VRB03KT P6SM FEW040 BKN250=



000
FTUS42 KCAE 291120
TAFCUB
TAF
KCUB 291120Z 2912/3012 00000KT P6SM BKN250
     FM291500 08007KT P6SM SCT040 BKN250
     FM292300 VRB03KT P6SM FEW040 BKN250=



000
FTUS42 KCAE 291120
TAFCAE
TAF
KCAE 291120Z 2912/3012 00000KT P6SM BKN250
     FM291500 08007KT P6SM SCT040 BKN250
     FM292300 VRB03KT P6SM FEW040 BKN250=



000
FTUS42 KCAE 291120
TAFCAE
TAF
KCAE 291120Z 2912/3012 00000KT P6SM BKN250
     FM291500 08007KT P6SM SCT040 BKN250
     FM292300 VRB03KT P6SM FEW040 BKN250=



000
FTUS42 KCAE 291120
TAFOGB
TAF
KOGB 291120Z 2912/3012 00000KT P6SM BKN250
     FM291500 08008KT P6SM SCT040 BKN250
     FM292300 VRB03KT P6SM FEW040 BKN250=



000
FTUS42 KCAE 291120
TAFDNL
TAF
KDNL 291120Z 2912/3012 VRB03KT P6SM BKN250
     FM291500 09008KT P6SM SCT040 BKN250
     FM292300 VRB03KT P6SM FEW040 BKN250=



000
FTUS42 KCAE 290852 AAA
TAFDNL
TAF AMD
KDNL 290852Z 2909/3006 VRB03KT P6SM BKN250
     FM291500 09008KT P6SM SCT040 BKN250
     FM292300 VRB03KT P6SM FEW040 BKN250=



000
FTUS42 KCAE 290852 AAA
TAFCUB
TAF AMD
KCUB 290852Z 2909/3006 00000KT P6SM BKN250
     FM291500 08007KT P6SM SCT040 BKN250
     FM292300 VRB03KT P6SM FEW040 BKN250=



000
FTUS42 KCAE 290852 AAA
TAFOGB
TAF AMD
KOGB 290852Z 2909/3006 00000KT P6SM BKN250
     FM291500 08008KT P6SM SCT040 BKN250
     FM292300 VRB03KT P6SM FEW040 BKN250=



000
FTUS42 KCAE 290852 AAA
TAFAGS
TAF AMD
KAGS 290852Z 2909/3006 00000KT 6SM BR BKN250
      TEMPO 2910/2913 4SM BR SCT003
     FM291500 09008KT P6SM SCT040 BKN250
     FM292300 VRB03KT P6SM FEW040 BKN250=



000
FTUS42 KCAE 290852 AAA
TAFCAE
TAF AMD
KCAE 290852Z 2909/3006 00000KT P6SM BKN250
     FM291500 08007KT P6SM SCT040 BKN250
     FM292300 VRB03KT P6SM FEW040 BKN250=



000
FTUS42 KCAE 290526
TAFOGB
TAF
KOGB 290526Z 2906/3006 00000KT P6SM SCT250
     FM290900 00000KT P6SM SCT015 BKN250
     FM291500 08008KT P6SM SCT040 BKN250
     FM292300 VRB03KT P6SM FEW040 BKN250=



000
FTUS42 KCAE 290526
TAFAGS
TAF
KAGS 290526Z 2906/3006 00000KT P6SM BKN250
     FM290900 00000KT 6SM BR SCT015 BKN250
      TEMPO 2910/2913 4SM BR SCT003
     FM291500 09008KT P6SM SCT040 BKN250
     FM292300 VRB03KT P6SM FEW040 BKN250=



000
FTUS42 KCAE 290526
TAFCUB
TAF
KCUB 290526Z 2906/3006 00000KT P6SM BKN250
     FM291500 08007KT P6SM SCT040 BKN250
     FM292300 VRB03KT P6SM FEW040 BKN250=



000
FTUS42 KCAE 290526
TAFCAE
TAF
KCAE 290526Z 2906/3006 00000KT P6SM BKN250
     FM291500 08007KT P6SM SCT040 BKN250
     FM292300 VRB03KT P6SM FEW040 BKN250=



000
FTUS42 KCAE 290526
TAFDNL
TAF
KDNL 290526Z 2906/3006 VRB03KT P6SM BKN250
     FM290900 VRB03KT P6SM SCT015 BKN250
     FM291500 09008KT P6SM SCT040 BKN250
     FM292300 VRB03KT P6SM FEW040 BKN250=



000
FTUS42 KCAE 290526
TAFDNL
TAF
KDNL 290526Z 2906/3006 VRB03KT P6SM BKN250
     FM290900 VRB03KT P6SM SCT015 BKN250
     FM291500 09008KT P6SM SCT040 BKN250
     FM292300 VRB03KT P6SM FEW040 BKN250=



000
FTUS42 KCAE 290526
TAFAGS
TAF
KAGS 290526Z 2906/3006 00000KT P6SM BKN250
     FM290900 00000KT 6SM BR SCT015 BKN250
      TEMPO 2910/2913 4SM BR SCT003
     FM291500 09008KT P6SM SCT040 BKN250
     FM292300 VRB03KT P6SM FEW040 BKN250=



000
FTUS42 KCAE 290526
TAFOGB
TAF
KOGB 290526Z 2906/3006 00000KT P6SM SCT250
     FM290900 00000KT P6SM SCT015 BKN250
     FM291500 08008KT P6SM SCT040 BKN250
     FM292300 VRB03KT P6SM FEW040 BKN250=



000
FTUS42 KCAE 290526
TAFCUB
TAF
KCUB 290526Z 2906/3006 00000KT P6SM BKN250
     FM291500 08007KT P6SM SCT040 BKN250
     FM292300 VRB03KT P6SM FEW040 BKN250=



000
FTUS42 KCAE 290526
TAFCAE
TAF
KCAE 290526Z 2906/3006 00000KT P6SM BKN250
     FM291500 08007KT P6SM SCT040 BKN250
     FM292300 VRB03KT P6SM FEW040 BKN250=



000
FTUS42 KCAE 290234 AAA
TAFCUB
TAF AMD
KCUB 290234Z 2903/2924 09003KT P6SM SCT250
     FM291500 08007KT P6SM SCT040 BKN250=



000
FTUS42 KCAE 290234 AAA
TAFDNL
TAF AMD
KDNL 290234Z 2903/2924 09003KT P6SM BKN250
     FM290900 07004KT P6SM SCT015 BKN250
     FM291500 09008KT P6SM SCT040 BKN250=



000
FTUS42 KCAE 290234 AAA
TAFAGS
TAF AMD
KAGS 290234Z 2903/2924 09003KT P6SM BKN250
     FM290900 07004KT P6SM SCT015 BKN250
     FM291500 09008KT P6SM SCT040 BKN250=



000
FTUS42 KCAE 290234 AAA
TAFCAE
TAF AMD
KCAE 290234Z 2903/2924 09003KT P6SM SCT250
     FM291500 08008KT P6SM SCT040 BKN250=



000
FTUS42 KCAE 290234 AAA
TAFOGB
TAF AMD
KOGB 290234Z 2903/2924 09003KT P6SM SCT250
     FM290900 07004KT P6SM SCT015 BKN250
     FM291500 08008KT P6SM SCT040 BKN250=



000
FTUS42 KCAE 290234 AAA
TAFCUB
TAF AMD
KCUB 290234Z 2903/2924 09003KT P6SM SCT250
     FM291500 08007KT P6SM SCT040 BKN250=



000
FTUS42 KCAE 290234 AAA
TAFOGB
TAF AMD
KOGB 290234Z 2903/2924 09003KT P6SM SCT250
     FM290900 07004KT P6SM SCT015 BKN250
     FM291500 08008KT P6SM SCT040 BKN250=



000
FTUS42 KCAE 290234 AAA
TAFAGS
TAF AMD
KAGS 290234Z 2903/2924 09003KT P6SM BKN250
     FM290900 07004KT P6SM SCT015 BKN250
     FM291500 09008KT P6SM SCT040 BKN250=



000
FTUS42 KCAE 290234 AAA
TAFDNL
TAF AMD
KDNL 290234Z 2903/2924 09003KT P6SM BKN250
     FM290900 07004KT P6SM SCT015 BKN250
     FM291500 09008KT P6SM SCT040 BKN250=



000
FTUS42 KCAE 290234 AAA
TAFCAE
TAF AMD
KCAE 290234Z 2903/2924 09003KT P6SM SCT250
     FM291500 08008KT P6SM SCT040 BKN250=



000
FTUS42 KCAE 282320
TAFOGB
TAF
KOGB 282320Z 2900/2924 09008KT P6SM BKN250
     FM290200 09003KT P6SM BKN250
     FM290900 07004KT P6SM SCT015 BKN250
     FM291500 08008KT P6SM SCT040 BKN250=



000
FTUS42 KCAE 282320
TAFCAE
TAF
KCAE 282320Z 2900/2924 13009KT P6SM BKN250
     FM290200 09003KT P6SM BKN250
     FM291500 08008KT P6SM SCT040 BKN250=



000
FTUS42 KCAE 282320
TAFAGS
TAF
KAGS 282320Z 2900/2924 10008KT P6SM BKN250
     FM290200 09003KT P6SM BKN250
     FM290900 07004KT P6SM SCT015 BKN250
     FM291500 09008KT P6SM SCT040 BKN250=



000
FTUS42 KCAE 282320
TAFCAE
TAF
KCAE 282320Z 2900/2924 13009KT P6SM BKN250
     FM290200 09003KT P6SM BKN250
     FM291500 08008KT P6SM SCT040 BKN250=



000
FTUS42 KCAE 282320
TAFOGB
TAF
KOGB 282320Z 2900/2924 09008KT P6SM BKN250
     FM290200 09003KT P6SM BKN250
     FM290900 07004KT P6SM SCT015 BKN250
     FM291500 08008KT P6SM SCT040 BKN250=



000
FTUS42 KCAE 282320
TAFCUB
TAF
KCUB 282320Z 2900/2924 13008KT P6SM BKN250
     FM290200 09003KT P6SM BKN250
     FM291500 08007KT P6SM SCT040 BKN250=



000
FTUS42 KCAE 282320
TAFAGS
TAF
KAGS 282320Z 2900/2924 10008KT P6SM BKN250
     FM290200 09003KT P6SM BKN250
     FM290900 07004KT P6SM SCT015 BKN250
     FM291500 09008KT P6SM SCT040 BKN250=



000
FTUS42 KCAE 282320
TAFDNL
TAF
KDNL 282320Z 2900/2924 10008KT P6SM BKN250
     FM290200 09003KT P6SM BKN250
     FM290900 07004KT P6SM SCT015 BKN250
     FM291500 09008KT P6SM SCT040 BKN250=



000
FTUS42 KCAE 282320
TAFDNL
TAF
KDNL 282320Z 2900/2924 10008KT P6SM BKN250
     FM290200 09003KT P6SM BKN250
     FM290900 07004KT P6SM SCT015 BKN250
     FM291500 09008KT P6SM SCT040 BKN250=



000
FTUS42 KCAE 282320
TAFCUB
TAF
KCUB 282320Z 2900/2924 13008KT P6SM BKN250
     FM290200 09003KT P6SM BKN250
     FM291500 08007KT P6SM SCT040 BKN250=



000
FTUS42 KCAE 282150 AAA
TAFAGS
TAF AMD
KAGS 282150Z 2822/2918 10008KT P6SM SCT040
     FM290200 09003KT P6SM BKN250
     FM290900 07004KT P6SM SCT015 BKN250
     FM291500 09008KT P6SM SCT040 BKN250=



000
FTUS42 KCAE 282150 AAA
TAFCUB
TAF AMD
KCUB 282150Z 2822/2918 10008KT P6SM SCT040
     FM290100 09003KT P6SM BKN250
     FM291500 08007KT P6SM SCT040 BKN250=



000
FTUS42 KCAE 282150 AAA
TAFOGB
TAF AMD
KOGB 282150Z 2822/2918 09008KT P6SM SCT040
     FM290200 09003KT P6SM BKN250
     FM290900 07004KT P6SM SCT015 BKN250
     FM291500 08008KT P6SM SCT040 BKN250=



000
FTUS42 KCAE 282150 AAA
TAFCAE
TAF AMD
KCAE 282150Z 2822/2918 10008KT P6SM SCT040
     FM290100 09003KT P6SM BKN250
     FM291500 08008KT P6SM SCT040 BKN250=



000
FTUS42 KCAE 282150 AAA
TAFDNL
TAF AMD
KDNL 282150Z 2822/2918 10008KT P6SM SCT040
     FM290200 09003KT P6SM BKN250
     FM290900 07004KT P6SM SCT015 BKN250
     FM291500 09008KT P6SM SCT040 BKN250=



000
FTUS42 KCAE 282150 AAA
TAFCUB
TAF AMD
KCUB 282150Z 2822/2918 10008KT P6SM SCT040
     FM290100 09003KT P6SM BKN250
     FM291500 08007KT P6SM SCT040 BKN250=



000
FTUS42 KCAE 282150 AAA
TAFAGS
TAF AMD
KAGS 282150Z 2822/2918 10008KT P6SM SCT040
     FM290200 09003KT P6SM BKN250
     FM290900 07004KT P6SM SCT015 BKN250
     FM291500 09008KT P6SM SCT040 BKN250=



000
FTUS42 KCAE 282150 AAA
TAFCAE
TAF AMD
KCAE 282150Z 2822/2918 10008KT P6SM SCT040
     FM290100 09003KT P6SM BKN250
     FM291500 08008KT P6SM SCT040 BKN250=



000
FTUS42 KCAE 282150 AAA
TAFDNL
TAF AMD
KDNL 282150Z 2822/2918 10008KT P6SM SCT040
     FM290200 09003KT P6SM BKN250
     FM290900 07004KT P6SM SCT015 BKN250
     FM291500 09008KT P6SM SCT040 BKN250=



000
FTUS42 KCAE 282150 AAA
TAFOGB
TAF AMD
KOGB 282150Z 2822/2918 09008KT P6SM SCT040
     FM290200 09003KT P6SM BKN250
     FM290900 07004KT P6SM SCT015 BKN250
     FM291500 08008KT P6SM SCT040 BKN250=



    US Dept of Commerce
    National Oceanic and Atmospheric Administration
    National Weather Service
    1325 East West Highway
    Silver Spring, MD 20910
    Page Author: NWS Internet Services Team
Disclaimer
Information Quality
Credits
Glossary
Privacy Policy
Freedom of Information Act (FOIA)
About Us
Career Opportunities